Gloria Glens, Ohio
Current Conditions -  °F | °C
As of 8:18 PM on Thursday 18 Dec 2014 (Local Time) from KBJJ Reporting Station
Overcast Overcast  
Wind Chill: 19°   Ceiling: 900
Heat Index: 27°   Visibility: 8mi
Dew Point: 24°   Wind: 7mph
Humidity: 89%   Direction: 270°W
Pressure: 30.17"   Gusts: NA
Location:  41.0673°N, 81.9012°W
Report Text: KBJJ 190118Z AUTO 27006KT 8SM OVC009 M03/M04 A3017 RMK AO2 SNE01 P0000 T10281044 TSNO
Loading
Personal Weather Stations






























Interactive Weather Map New forecast layout! Learn more

10-Day Weather Forecast

Advertisements
Track Severe Weather on mobile